Coppock, Iowa
Current Conditions -  °F | °C
As of 3:55 PM on Friday 31 Oct 2014 (Local Time) from KAWG Reporting Station
Clear Clear  
Wind Chill:   Ceiling: Unl
Heat Index:   Visibility: 10mi
Dew Point: -6°   Wind: 22mph
Humidity: 42%   Direction: 350°N
Pressure: 30.38"   Gusts: 28mph
Location:  41.1406°N, 91.6635°W
Report Text: KAWG 312055Z AUTO 35019G24KT 10SM CLR 06/M06 A3038 RMK AO2
Loading
Personal Weather Stations






























Interactive Weather Map
Tropical Storm Tracking
New forecast layout! Learn more

10-Day Weather Forecast

Advertisements
Track Severe Weather on mobile